sensor_id;sensor_type;location;lat;lon;timestamp;temperature;humidity
21031;DHT22;61072;47.808;7.636;2022-12-24T00:01:04;12.50;99.90
21031;DHT22;61072;47.808;7.636;2022-12-24T00:03:32;12.50;99.90
21031;DHT22;61072;47.808;7.636;2022-12-24T00:06:03;12.50;99.90
21031;DHT22;61072;47.808;7.636;2022-12-24T00:08:31;12.50;99.90
21031;DHT22;61072;47.808;7.636;2022-12-24T00:10:57;12.50;99.90
21031;DHT22;61072;47.808;7.636;2022-12-24T00:13:24;12.50;99.90
21031;DHT22;61072;47.808;7.636;2022-12-24T00:15:51;12.50;99.90
21031;DHT22;61072;47.808;7.636;2022-12-24T00:18:17;12.50;99.90
21031;DHT22;61072;47.808;7.636;2022-12-24T00:20:46;12.50;99.90
21031;DHT22;61072;47.808;7.636;2022-12-24T00:23:14;12.50;99.90
21031;DHT22;61072;47.808;7.636;2022-12-24T00:25:41;12.50;99.90
21031;DHT22;61072;47.808;7.636;2022-12-24T00:28:08;12.50;99.90
21031;DHT22;61072;47.808;7.636;2022-12-24T00:30:37;12.50;99.90
21031;DHT22;61072;47.808;7.636;2022-12-24T00:33:05;12.50;99.90
21031;DHT22;61072;47.808;7.636;2022-12-24T00:35:36;12.50;99.90
21031;DHT22;61072;47.808;7.636;2022-12-24T00:38:03;12.50;99.90
21031;DHT22;61072;47.808;7.636;2022-12-24T00:40:30;12.50;99.90
21031;DHT22;61072;47.808;7.636;2022-12-24T00:42:57;12.50;99.90
21031;DHT22;61072;47.808;7.636;2022-12-24T00:45:24;12.50;99.90
21031;DHT22;61072;47.808;7.636;2022-12-24T00:47:53;12.50;99.90
21031;DHT22;61072;47.808;7.636;2022-12-24T00:50:19;12.50;99.90
21031;DHT22;61072;47.808;7.636;2022-12-24T00:52:47;12.50;99.90
21031;DHT22;61072;47.808;7.636;2022-12-24T00:55:14;12.50;99.90
21031;DHT22;61072;47.808;7.636;2022-12-24T00:57:40;12.50;99.90
21031;DHT22;61072;47.808;7.636;2022-12-24T01:00:09;12.50;99.90
21031;DHT22;61072;47.808;7.636;2022-12-24T01:02:36;12.50;99.90
21031;DHT22;61072;47.808;7.636;2022-12-24T01:05:03;12.50;99.90
21031;DHT22;61072;47.808;7.636;2022-12-24T01:07:39;12.50;99.90
21031;DHT22;61072;47.808;7.636;2022-12-24T01:10:07;12.50;99.90
21031;DHT22;61072;47.808;7.636;2022-12-24T01:12:34;12.50;99.90
21031;DHT22;61072;47.808;7.636;2022-12-24T01:15:01;12.50;99.90
21031;DHT22;61072;47.808;7.636;2022-12-24T01:17:29;12.50;99.90
21031;DHT22;61072;47.808;7.636;2022-12-24T01:19:56;12.50;99.90
21031;DHT22;61072;47.808;7.636;2022-12-24T01:22:23;12.50;99.90
21031;DHT22;61072;47.808;7.636;2022-12-24T01:24:49;12.50;99.90
21031;DHT22;61072;47.808;7.636;2022-12-24T01:27:16;12.50;99.90
21031;DHT22;61072;47.808;7.636;2022-12-24T01:29:43;12.50;99.90
21031;DHT22;61072;47.808;7.636;2022-12-24T01:32:10;12.50;99.90
21031;DHT22;61072;47.808;7.636;2022-12-24T01:34:36;12.40;99.90
21031;DHT22;61072;47.808;7.636;2022-12-24T01:37:03;12.40;99.90
21031;DHT22;61072;47.808;7.636;2022-12-24T01:39:30;12.40;99.90
21031;DHT22;61072;47.808;7.636;2022-12-24T01:41:56;12.40;99.90
21031;DHT22;61072;47.808;7.636;2022-12-24T01:45:21;12.40;99.90
21031;DHT22;61072;47.808;7.636;2022-12-24T01:47:42;12.40;99.90
21031;DHT22;61072;47.808;7.636;2022-12-24T01:50:15;12.40;99.90
21031;DHT22;61072;47.808;7.636;2022-12-24T01:52:43;12.30;99.90
21031;DHT22;61072;47.808;7.636;2022-12-24T01:55:13;12.30;99.90
21031;DHT22;61072;47.808;7.636;2022-12-24T01:57:54;12.30;99.90
21031;DHT22;61072;47.808;7.636;2022-12-24T02:00:22;12.30;99.90
21031;DHT22;61072;47.808;7.636;2022-12-24T02:02:50;12.30;99.90
21031;DHT22;61072;47.808;7.636;2022-12-24T02:05:23;12.30;99.90
21031;DHT22;61072;47.808;7.636;2022-12-24T02:07:52;12.40;99.90
21031;DHT22;61072;47.808;7.636;2022-12-24T02:10:19;12.30;99.90
21031;DHT22;61072;47.808;7.636;2022-12-24T02:12:46;12.30;99.90
21031;DHT22;61072;47.808;7.636;2022-12-24T02:15:18;12.30;99.90
21031;DHT22;61072;47.808;7.636;2022-12-24T02:23:46;12.30;99.90
21031;DHT22;61072;47.808;7.636;2022-12-24T02:34:57;12.30;99.90
21031;DHT22;61072;47.808;7.636;2022-12-24T02:37:36;12.20;99.90
21031;DHT22;61072;47.808;7.636;2022-12-24T02:40:22;12.20;99.90
21031;DHT22;61072;47.808;7.636;2022-12-24T02:42:55;12.20;99.90
21031;DHT22;61072;47.808;7.636;2022-12-24T02:45:31;12.20;99.90
21031;DHT22;61072;47.808;7.636;2022-12-24T02:47:59;12.20;99.90
21031;DHT22;61072;47.808;7.636;2022-12-24T02:50:27;12.20;99.90
21031;DHT22;61072;47.808;7.636;2022-12-24T02:52:53;12.20;99.90
21031;DHT22;61072;47.808;7.636;2022-12-24T02:55:34;12.20;99.90
21031;DHT22;61072;47.808;7.636;2022-12-24T03:01:39;12.20;99.90
21031;DHT22;61072;47.808;7.636;2022-12-24T03:06:49;12.20;99.90
21031;DHT22;61072;47.808;7.636;2022-12-24T03:09:30;12.20;99.90
21031;DHT22;61072;47.808;7.636;2022-12-24T03:12:04;12.10;99.90
21031;DHT22;61072;47.808;7.636;2022-12-24T03:14:32;12.10;99.90
21031;DHT22;61072;47.808;7.636;2022-12-24T03:17:01;12.10;99.90
21031;DHT22;61072;47.808;7.636;2022-12-24T03:19:29;12.10;99.90
21031;DHT22;61072;47.808;7.636;2022-12-24T03:21:58;12.10;99.90
21031;DHT22;61072;47.808;7.636;2022-12-24T03:24:27;12.10;99.90
21031;DHT22;61072;47.808;7.636;2022-12-24T03:26:54;12.20;99.90
21031;DHT22;61072;47.808;7.636;2022-12-24T03:29:21;12.10;99.90
21031;DHT22;61072;47.808;7.636;2022-12-24T03:31:50;12.10;99.90
21031;DHT22;61072;47.808;7.636;2022-12-24T03:34:18;12.10;99.90
21031;DHT22;61072;47.808;7.636;2022-12-24T03:36:46;12.10;99.90
21031;DHT22;61072;47.808;7.636;2022-12-24T03:39:13;12.10;99.90
21031;DHT22;61072;47.808;7.636;2022-12-24T03:41:40;12.10;99.90
21031;DHT22;61072;47.808;7.636;2022-12-24T03:44:07;12.20;99.90
21031;DHT22;61072;47.808;7.636;2022-12-24T03:46:33;12.20;99.90
21031;DHT22;61072;47.808;7.636;2022-12-24T03:49:00;12.20;99.90
21031;DHT22;61072;47.808;7.636;2022-12-24T03:51:27;12.20;99.90
21031;DHT22;61072;47.808;7.636;2022-12-24T03:53:55;12.20;99.90
21031;DHT22;61072;47.808;7.636;2022-12-24T03:56:22;12.10;99.90
21031;DHT22;61072;47.808;7.636;2022-12-24T03:58:50;12.10;99.90
21031;DHT22;61072;47.808;7.636;2022-12-24T04:01:17;12.10;99.90
21031;DHT22;61072;47.808;7.636;2022-12-24T04:03:44;12.10;99.90
21031;DHT22;61072;47.808;7.636;2022-12-24T04:06:13;12.10;99.90
21031;DHT22;61072;47.808;7.636;2022-12-24T04:08:40;12.10;99.90
21031;DHT22;61072;47.808;7.636;2022-12-24T04:11:10;12.10;99.90
21031;DHT22;61072;47.808;7.636;2022-12-24T04:13:37;12.10;99.90
21031;DHT22;61072;47.808;7.636;2022-12-24T04:16:14;12.20;99.90
21031;DHT22;61072;47.808;7.636;2022-12-24T04:18:42;12.10;99.90
21031;DHT22;61072;47.808;7.636;2022-12-24T04:21:10;12.10;99.90
21031;DHT22;61072;47.808;7.636;2022-12-24T04:23:38;12.10;99.90
21031;DHT22;61072;47.808;7.636;2022-12-24T04:26:06;12.10;99.90
21031;DHT22;61072;47.808;7.636;2022-12-24T04:28:34;12.10;99.90
21031;DHT22;61072;47.808;7.636;2022-12-24T04:31:03;12.10;99.90
21031;DHT22;61072;47.808;7.636;2022-12-24T04:33:30;12.10;99.90
21031;DHT22;61072;47.808;7.636;2022-12-24T04:35:57;12.10;99.90
21031;DHT22;61072;47.808;7.636;2022-12-24T04:38:24;12.00;99.90
21031;DHT22;61072;47.808;7.636;2022-12-24T04:41:10;12.00;99.90
21031;DHT22;61072;47.808;7.636;2022-12-24T04:43:46;12.00;99.90
21031;DHT22;61072;47.808;7.636;2022-12-24T04:46:16;12.00;99.90
21031;DHT22;61072;47.808;7.636;2022-12-24T04:48:45;12.00;99.90
21031;DHT22;61072;47.808;7.636;2022-12-24T04:51:13;12.10;99.90
21031;DHT22;61072;47.808;7.636;2022-12-24T04:53:41;12.00;99.90
21031;DHT22;61072;47.808;7.636;2022-12-24T04:56:11;12.00;99.90
21031;DHT22;61072;47.808;7.636;2022-12-24T04:58:38;12.00;99.90
21031;DHT22;61072;47.808;7.636;2022-12-24T05:01:07;12.00;99.90
21031;DHT22;61072;47.808;7.636;2022-12-24T05:03:34;12.00;99.90
21031;DHT22;61072;47.808;7.636;2022-12-24T05:06:06;12.00;99.90
21031;DHT22;61072;47.808;7.636;2022-12-24T05:08:34;12.00;99.90
21031;DHT22;61072;47.808;7.636;2022-12-24T05:11:01;12.00;99.90
21031;DHT22;61072;47.808;7.636;2022-12-24T05:13:29;12.00;99.90
21031;DHT22;61072;47.808;7.636;2022-12-24T05:16:08;12.00;99.90
21031;DHT22;61072;47.808;7.636;2022-12-24T05:18:35;12.00;99.90
21031;DHT22;61072;47.808;7.636;2022-12-24T05:21:02;12.00;99.90
21031;DHT22;61072;47.808;7.636;2022-12-24T05:23:32;12.00;99.90
21031;DHT22;61072;47.808;7.636;2022-12-24T05:28:53;12.00;99.90
21031;DHT22;61072;47.808;7.636;2022-12-24T05:31:22;11.90;99.90
21031;DHT22;61072;47.808;7.636;2022-12-24T05:33:49;11.90;99.90
21031;DHT22;61072;47.808;7.636;2022-12-24T05:36:16;11.90;99.90
21031;DHT22;61072;47.808;7.636;2022-12-24T05:38:43;12.00;99.90
21031;DHT22;61072;47.808;7.636;2022-12-24T05:41:10;12.00;99.90
21031;DHT22;61072;47.808;7.636;2022-12-24T05:43:37;12.00;99.90
21031;DHT22;61072;47.808;7.636;2022-12-24T05:46:07;12.00;99.90
21031;DHT22;61072;47.808;7.636;2022-12-24T05:48:34;12.00;99.90
21031;DHT22;61072;47.808;7.636;2022-12-24T05:51:06;12.00;99.90
21031;DHT22;61072;47.808;7.636;2022-12-24T05:53:34;12.00;99.90
21031;DHT22;61072;47.808;7.636;2022-12-24T05:56:06;12.00;99.90
21031;DHT22;61072;47.808;7.636;2022-12-24T05:58:33;12.00;99.90
21031;DHT22;61072;47.808;7.636;2022-12-24T06:01:02;12.00;99.90
21031;DHT22;61072;47.808;7.636;2022-12-24T06:03:29;11.90;99.90
21031;DHT22;61072;47.808;7.636;2022-12-24T06:05:58;11.90;99.90
21031;DHT22;61072;47.808;7.636;2022-12-24T06:08:26;11.90;99.90
21031;DHT22;61072;47.808;7.636;2022-12-24T06:10:55;11.90;99.90
21031;DHT22;61072;47.808;7.636;2022-12-24T06:13:21;11.90;99.90
21031;DHT22;61072;47.808;7.636;2022-12-24T06:15:48;11.90;99.90
21031;DHT22;61072;47.808;7.636;2022-12-24T06:18:15;11.90;99.90
21031;DHT22;61072;47.808;7.636;2022-12-24T06:20:42;11.90;99.90
21031;DHT22;61072;47.808;7.636;2022-12-24T06:23:08;11.90;99.90
21031;DHT22;61072;47.808;7.636;2022-12-24T06:25:35;11.90;99.90
21031;DHT22;61072;47.808;7.636;2022-12-24T06:28:02;11.90;99.90
21031;DHT22;61072;47.808;7.636;2022-12-24T06:30:29;11.90;99.90
21031;DHT22;61072;47.808;7.636;2022-12-24T06:32:55;11.90;99.90
21031;DHT22;61072;47.808;7.636;2022-12-24T06:35:22;11.90;99.90
21031;DHT22;61072;47.808;7.636;2022-12-24T06:37:49;11.90;99.90
21031;DHT22;61072;47.808;7.636;2022-12-24T06:40:15;11.90;99.90
21031;DHT22;61072;47.808;7.636;2022-12-24T06:42:42;11.90;99.90
21031;DHT22;61072;47.808;7.636;2022-12-24T06:45:09;11.90;99.90
21031;DHT22;61072;47.808;7.636;2022-12-24T06:47:36;11.90;99.90
21031;DHT22;61072;47.808;7.636;2022-12-24T06:50:03;11.90;99.90
21031;DHT22;61072;47.808;7.636;2022-12-24T06:52:29;11.90;99.90
21031;DHT22;61072;47.808;7.636;2022-12-24T06:54:56;11.90;99.90
21031;DHT22;61072;47.808;7.636;2022-12-24T06:57:23;11.90;99.90
21031;DHT22;61072;47.808;7.636;2022-12-24T06:59:49;11.90;99.90
21031;DHT22;61072;47.808;7.636;2022-12-24T07:02:16;11.90;99.90
21031;DHT22;61072;47.808;7.636;2022-12-24T07:04:43;11.90;99.90
21031;DHT22;61072;47.808;7.636;2022-12-24T07:07:09;11.80;99.90
21031;DHT22;61072;47.808;7.636;2022-12-24T07:09:36;11.80;99.90
21031;DHT22;61072;47.808;7.636;2022-12-24T07:12:03;11.80;99.90
21031;DHT22;61072;47.808;7.636;2022-12-24T07:14:31;11.80;99.90
21031;DHT22;61072;47.808;7.636;2022-12-24T07:16:57;11.80;99.90
21031;DHT22;61072;47.808;7.636;2022-12-24T07:19:25;11.80;99.90
21031;DHT22;61072;47.808;7.636;2022-12-24T07:21:51;11.80;99.90
21031;DHT22;61072;47.808;7.636;2022-12-24T07:24:18;11.80;99.90
21031;DHT22;61072;47.808;7.636;2022-12-24T07:26:46;11.80;99.90
21031;DHT22;61072;47.808;7.636;2022-12-24T07:29:12;11.80;99.90
21031;DHT22;61072;47.808;7.636;2022-12-24T07:31:39;11.80;99.90
21031;DHT22;61072;47.808;7.636;2022-12-24T07:34:06;11.80;99.90
21031;DHT22;61072;47.808;7.636;2022-12-24T07:36:33;11.80;99.90
21031;DHT22;61072;47.808;7.636;2022-12-24T07:38:59;11.80;99.90
21031;DHT22;61072;47.808;7.636;2022-12-24T07:41:26;11.80;99.90
21031;DHT22;61072;47.808;7.636;2022-12-24T07:43:53;11.80;99.90
21031;DHT22;61072;47.808;7.636;2022-12-24T07:46:20;11.70;99.90
21031;DHT22;61072;47.808;7.636;2022-12-24T07:48:47;11.80;99.90
21031;DHT22;61072;47.808;7.636;2022-12-24T07:51:14;11.80;99.90
21031;DHT22;61072;47.808;7.636;2022-12-24T07:53:40;11.70;99.90
21031;DHT22;61072;47.808;7.636;2022-12-24T07:56:15;11.70;99.90
21031;DHT22;61072;47.808;7.636;2022-12-24T07:58:42;11.70;99.90
21031;DHT22;61072;47.808;7.636;2022-12-24T08:01:09;11.80;99.90
21031;DHT22;61072;47.808;7.636;2022-12-24T08:03:37;11.80;99.90
21031;DHT22;61072;47.808;7.636;2022-12-24T08:06:04;11.80;99.90
21031;DHT22;61072;47.808;7.636;2022-12-24T08:08:31;11.80;99.90
21031;DHT22;61072;47.808;7.636;2022-12-24T08:11:02;11.90;99.90
21031;DHT22;61072;47.808;7.636;2022-12-24T08:13:29;11.90;99.90
21031;DHT22;61072;47.808;7.636;2022-12-24T08:15:56;11.90;99.90
21031;DHT22;61072;47.808;7.636;2022-12-24T08:18:23;11.80;99.90
21031;DHT22;61072;47.808;7.636;2022-12-24T08:20:50;11.90;99.90
21031;DHT22;61072;47.808;7.636;2022-12-24T08:23:17;11.90;99.90
21031;DHT22;61072;47.808;7.636;2022-12-24T08:25:46;12.00;99.90
21031;DHT22;61072;47.808;7.636;2022-12-24T08:28:14;12.00;99.90
21031;DHT22;61072;47.808;7.636;2022-12-24T08:30:42;12.00;99.90
21031;DHT22;61072;47.808;7.636;2022-12-24T08:33:09;12.10;99.90
21031;DHT22;61072;47.808;7.636;2022-12-24T08:35:36;12.10;99.90
21031;DHT22;61072;47.808;7.636;2022-12-24T08:38:03;12.10;99.90
21031;DHT22;61072;47.808;7.636;2022-12-24T08:40:29;12.20;99.90
21031;DHT22;61072;47.808;7.636;2022-12-24T08:42:56;12.20;99.90
21031;DHT22;61072;47.808;7.636;2022-12-24T08:45:23;12.30;99.90
21031;DHT22;61072;47.808;7.636;2022-12-24T08:47:50;12.30;99.90
21031;DHT22;61072;47.808;7.636;2022-12-24T08:50:16;12.30;99.90
21031;DHT22;61072;47.808;7.636;2022-12-24T08:52:43;12.30;99.90
21031;DHT22;61072;47.808;7.636;2022-12-24T08:55:10;12.30;99.90
21031;DHT22;61072;47.808;7.636;2022-12-24T08:57:36;12.30;99.90
21031;DHT22;61072;47.808;7.636;2022-12-24T09:00:06;12.30;99.90
21031;DHT22;61072;47.808;7.636;2022-12-24T09:02:33;12.30;99.90
21031;DHT22;61072;47.808;7.636;2022-12-24T09:05:00;12.30;99.90
21031;DHT22;61072;47.808;7.636;2022-12-24T09:07:26;12.30;99.90
21031;DHT22;61072;47.808;7.636;2022-12-24T09:09:53;12.20;99.90
21031;DHT22;61072;47.808;7.636;2022-12-24T09:12:20;12.30;99.90
21031;DHT22;61072;47.808;7.636;2022-12-24T09:14:46;12.30;99.90
21031;DHT22;61072;47.808;7.636;2022-12-24T09:17:13;12.30;99.90
21031;DHT22;61072;47.808;7.636;2022-12-24T09:19:40;12.30;99.90
21031;DHT22;61072;47.808;7.636;2022-12-24T09:22:06;12.30;99.90
21031;DHT22;61072;47.808;7.636;2022-12-24T09:24:33;12.30;99.90
21031;DHT22;61072;47.808;7.636;2022-12-24T09:27:01;12.40;99.90
21031;DHT22;61072;47.808;7.636;2022-12-24T09:29:30;12.40;99.90
21031;DHT22;61072;47.808;7.636;2022-12-24T09:31:57;12.40;99.90
21031;DHT22;61072;47.808;7.636;2022-12-24T09:34:24;12.50;99.90
21031;DHT22;61072;47.808;7.636;2022-12-24T09:36:56;12.50;99.90
21031;DHT22;61072;47.808;7.636;2022-12-24T09:39:23;12.60;99.90
21031;DHT22;61072;47.808;7.636;2022-12-24T09:42:21;12.70;99.90
21031;DHT22;61072;47.808;7.636;2022-12-24T09:44:57;12.80;99.90
21031;DHT22;61072;47.808;7.636;2022-12-24T09:48:14;12.80;99.90
21031;DHT22;61072;47.808;7.636;2022-12-24T09:50:48;12.90;99.90
21031;DHT22;61072;47.808;7.636;2022-12-24T09:53:42;13.00;99.90
21031;DHT22;61072;47.808;7.636;2022-12-24T09:56:18;13.00;99.90
21031;DHT22;61072;47.808;7.636;2022-12-24T09:59:02;13.10;99.90
21031;DHT22;61072;47.808;7.636;2022-12-24T10:01:31;13.20;99.90
21031;DHT22;61072;47.808;7.636;2022-12-24T10:04:02;13.20;99.90
21031;DHT22;61072;47.808;7.636;2022-12-24T10:20:44;13.40;99.90
21031;DHT22;61072;47.808;7.636;2022-12-24T10:23:45;13.40;99.90
21031;DHT22;61072;47.808;7.636;2022-12-24T10:26:28;13.30;99.90
21031;DHT22;61072;47.808;7.636;2022-12-24T10:28:59;13.30;99.90
21031;DHT22;61072;47.808;7.636;2022-12-24T10:31:35;13.20;99.90
21031;DHT22;61072;47.808;7.636;2022-12-24T10:34:14;13.20;99.90
21031;DHT22;61072;47.808;7.636;2022-12-24T10:36:42;13.20;99.90
21031;DHT22;61072;47.808;7.636;2022-12-24T10:39:16;13.20;99.90
21031;DHT22;61072;47.808;7.636;2022-12-24T10:41:46;13.20;99.90
21031;DHT22;61072;47.808;7.636;2022-12-24T10:44:16;13.20;99.90
21031;DHT22;61072;47.808;7.636;2022-12-24T10:46:43;13.20;99.90
21031;DHT22;61072;47.808;7.636;2022-12-24T10:49:14;13.20;99.90
21031;DHT22;61072;47.808;7.636;2022-12-24T10:51:49;13.10;99.90
21031;DHT22;61072;47.808;7.636;2022-12-24T10:54:18;13.10;99.90
21031;DHT22;61072;47.808;7.636;2022-12-24T10:56:58;13.10;99.90
21031;DHT22;61072;47.808;7.636;2022-12-24T11:02:00;13.10;99.90
21031;DHT22;61072;47.808;7.636;2022-12-24T11:04:29;13.10;99.90
21031;DHT22;61072;47.808;7.636;2022-12-24T11:07:00;13.10;99.90
21031;DHT22;61072;47.808;7.636;2022-12-24T11:09:29;13.10;99.90
21031;DHT22;61072;47.808;7.636;2022-12-24T11:11:57;13.10;99.90
21031;DHT22;61072;47.808;7.636;2022-12-24T11:14:35;13.10;99.90
21031;DHT22;61072;47.808;7.636;2022-12-24T11:17:03;13.10;99.90
21031;DHT22;61072;47.808;7.636;2022-12-24T11:19:32;13.10;99.90
21031;DHT22;61072;47.808;7.636;2022-12-24T11:22:03;13.10;99.90
21031;DHT22;61072;47.808;7.636;2022-12-24T11:24:33;13.10;99.90
21031;DHT22;61072;47.808;7.636;2022-12-24T11:27:39;13.20;99.90
21031;DHT22;61072;47.808;7.636;2022-12-24T11:32:44;13.20;99.90
21031;DHT22;61072;47.808;7.636;2022-12-24T11:35:19;13.20;99.90
21031;DHT22;61072;47.808;7.636;2022-12-24T11:40:43;13.20;99.90
21031;DHT22;61072;47.808;7.636;2022-12-24T11:43:37;13.30;99.90
21031;DHT22;61072;47.808;7.636;2022-12-24T11:46:21;13.30;99.90
21031;DHT22;61072;47.808;7.636;2022-12-24T11:57:22;13.40;99.90
21031;DHT22;61072;47.808;7.636;2022-12-24T11:59:53;13.50;99.90
21031;DHT22;61072;47.808;7.636;2022-12-24T12:02:35;13.50;99.90
21031;DHT22;61072;47.808;7.636;2022-12-24T12:05:09;13.60;99.90
21031;DHT22;61072;47.808;7.636;2022-12-24T12:07:38;13.60;99.90
21031;DHT22;61072;47.808;7.636;2022-12-24T12:10:18;13.60;99.90
21031;DHT22;61072;47.808;7.636;2022-12-24T12:12:55;13.60;99.90
21031;DHT22;61072;47.808;7.636;2022-12-24T12:15:26;13.60;99.90
21031;DHT22;61072;47.808;7.636;2022-12-24T12:18:02;13.60;99.90
21031;DHT22;61072;47.808;7.636;2022-12-24T12:20:37;13.60;99.90
21031;DHT22;61072;47.808;7.636;2022-12-24T12:23:12;13.60;99.90
21031;DHT22;61072;47.808;7.636;2022-12-24T12:26:09;13.60;99.90
21031;DHT22;61072;47.808;7.636;2022-12-24T12:28:53;13.70;99.90
21031;DHT22;61072;47.808;7.636;2022-12-24T12:31:40;13.70;99.90
21031;DHT22;61072;47.808;7.636;2022-12-24T12:34:35;13.70;99.90
21031;DHT22;61072;47.808;7.636;2022-12-24T12:37:30;13.70;99.90
21031;DHT22;61072;47.808;7.636;2022-12-24T12:39:59;13.70;99.90
21031;DHT22;61072;47.808;7.636;2022-12-24T12:42:32;13.70;99.90
21031;DHT22;61072;47.808;7.636;2022-12-24T12:48:17;13.70;99.90
21031;DHT22;61072;47.808;7.636;2022-12-24T12:56:35;13.60;99.90
21031;DHT22;61072;47.808;7.636;2022-12-24T13:21:35;13.20;99.90
21031;DHT22;61072;47.808;7.636;2022-12-24T13:24:17;13.20;99.90
21031;DHT22;61072;47.808;7.636;2022-12-24T13:34:48;13.10;99.90
21031;DHT22;61072;47.808;7.636;2022-12-24T13:37:19;13.10;99.90
21031;DHT22;61072;47.808;7.636;2022-12-24T13:42:49;13.10;99.90
21031;DHT22;61072;47.808;7.636;2022-12-24T13:50:48;13.00;99.90
21031;DHT22;61072;47.808;7.636;2022-12-24T13:53:55;13.00;99.90
21031;DHT22;61072;47.808;7.636;2022-12-24T13:56:26;13.00;99.90
21031;DHT22;61072;47.808;7.636;2022-12-24T13:59:10;13.00;99.90
21031;DHT22;61072;47.808;7.636;2022-12-24T14:01:40;12.90;99.90
21031;DHT22;61072;47.808;7.636;2022-12-24T14:04:17;12.90;99.90
21031;DHT22;61072;47.808;7.636;2022-12-24T14:06:48;12.80;99.90
21031;DHT22;61072;47.808;7.636;2022-12-24T14:09:19;12.80;99.90
21031;DHT22;61072;47.808;7.636;2022-12-24T14:14:39;12.80;99.90
21031;DHT22;61072;47.808;7.636;2022-12-24T14:17:22;12.70;99.90
21031;DHT22;61072;47.808;7.636;2022-12-24T14:19:53;12.70;99.90
21031;DHT22;61072;47.808;7.636;2022-12-24T14:22:37;12.70;99.90
21031;DHT22;61072;47.808;7.636;2022-12-24T14:25:20;12.70;99.90
21031;DHT22;61072;47.808;7.636;2022-12-24T14:28:05;12.70;99.90
21031;DHT22;61072;47.808;7.636;2022-12-24T14:30:37;12.60;99.90
21031;DHT22;61072;47.808;7.636;2022-12-24T14:33:03;12.60;99.90
21031;DHT22;61072;47.808;7.636;2022-12-24T14:35:36;12.60;99.90
21031;DHT22;61072;47.808;7.636;2022-12-24T14:38:12;12.60;99.90
21031;DHT22;61072;47.808;7.636;2022-12-24T14:49:50;12.60;99.90
21031;DHT22;61072;47.808;7.636;2022-12-24T14:52:31;12.50;99.90
21031;DHT22;61072;47.808;7.636;2022-12-24T14:55:48;12.50;99.90
21031;DHT22;61072;47.808;7.636;2022-12-24T14:58:20;12.50;99.90
21031;DHT22;61072;47.808;7.636;2022-12-24T15:00:47;12.50;99.90
21031;DHT22;61072;47.808;7.636;2022-12-24T15:03:18;12.50;99.90
21031;DHT22;61072;47.808;7.636;2022-12-24T15:05:51;12.40;99.90
21031;DHT22;61072;47.808;7.636;2022-12-24T15:08:35;12.50;99.90
21031;DHT22;61072;47.808;7.636;2022-12-24T15:11:06;12.50;99.90
21031;DHT22;61072;47.808;7.636;2022-12-24T15:13:43;12.50;99.90
21031;DHT22;61072;47.808;7.636;2022-12-24T15:16:13;12.50;99.90
21031;DHT22;61072;47.808;7.636;2022-12-24T15:18:48;12.40;99.90
21031;DHT22;61072;47.808;7.636;2022-12-24T15:21:22;12.50;99.90
21031;DHT22;61072;47.808;7.636;2022-12-24T15:23:51;12.50;99.90
21031;DHT22;61072;47.808;7.636;2022-12-24T15:26:22;12.40;99.90
21031;DHT22;61072;47.808;7.636;2022-12-24T15:28:49;12.40;99.90
21031;DHT22;61072;47.808;7.636;2022-12-24T15:31:23;12.50;99.90
21031;DHT22;61072;47.808;7.636;2022-12-24T15:33:54;12.40;99.90
21031;DHT22;61072;47.808;7.636;2022-12-24T15:36:35;12.40;99.90
21031;DHT22;61072;47.808;7.636;2022-12-24T15:39:11;12.40;99.90
21031;DHT22;61072;47.808;7.636;2022-12-24T15:41:41;12.30;99.90
21031;DHT22;61072;47.808;7.636;2022-12-24T15:44:37;12.30;99.90
21031;DHT22;61072;47.808;7.636;2022-12-24T15:47:06;12.30;99.90
21031;DHT22;61072;47.808;7.636;2022-12-24T15:49:34;12.30;99.90
21031;DHT22;61072;47.808;7.636;2022-12-24T15:52:08;12.30;99.90
21031;DHT22;61072;47.808;7.636;2022-12-24T15:54:36;12.30;99.90
21031;DHT22;61072;47.808;7.636;2022-12-24T15:57:22;12.30;99.90
21031;DHT22;61072;47.808;7.636;2022-12-24T15:59:54;12.30;99.90
21031;DHT22;61072;47.808;7.636;2022-12-24T16:05:28;12.20;99.90
21031;DHT22;61072;47.808;7.636;2022-12-24T16:08:04;12.20;99.90
21031;DHT22;61072;47.808;7.636;2022-12-24T16:10:42;12.20;99.90
21031;DHT22;61072;47.808;7.636;2022-12-24T16:13:17;12.20;99.90
21031;DHT22;61072;47.808;7.636;2022-12-24T16:15:47;12.20;99.90
21031;DHT22;61072;47.808;7.636;2022-12-24T16:18:23;12.20;99.90
21031;DHT22;61072;47.808;7.636;2022-12-24T16:20:52;12.20;99.90
21031;DHT22;61072;47.808;7.636;2022-12-24T16:23:21;12.20;99.90
21031;DHT22;61072;47.808;7.636;2022-12-24T16:25:49;12.20;99.90
21031;DHT22;61072;47.808;7.636;2022-12-24T16:28:16;12.20;99.90
21031;DHT22;61072;47.808;7.636;2022-12-24T16:30:48;12.20;99.90
21031;DHT22;61072;47.808;7.636;2022-12-24T16:33:17;12.30;99.90
21031;DHT22;61072;47.808;7.636;2022-12-24T16:35:45;12.30;99.90
21031;DHT22;61072;47.808;7.636;2022-12-24T16:38:12;12.30;99.90
21031;DHT22;61072;47.808;7.636;2022-12-24T16:40:40;12.30;99.90
21031;DHT22;61072;47.808;7.636;2022-12-24T16:43:08;12.30;99.90
21031;DHT22;61072;47.808;7.636;2022-12-24T16:46:00;12.30;99.90
21031;DHT22;61072;47.808;7.636;2022-12-24T16:48:28;12.30;99.90
21031;DHT22;61072;47.808;7.636;2022-12-24T16:50:55;12.30;99.90
21031;DHT22;61072;47.808;7.636;2022-12-24T16:53:22;12.30;99.90
21031;DHT22;61072;47.808;7.636;2022-12-24T16:55:50;12.30;99.90
21031;DHT22;61072;47.808;7.636;2022-12-24T16:58:17;12.30;99.90
21031;DHT22;61072;47.808;7.636;2022-12-24T17:00:45;12.30;99.90
21031;DHT22;61072;47.808;7.636;2022-12-24T17:03:12;12.20;99.90
21031;DHT22;61072;47.808;7.636;2022-12-24T17:05:40;12.20;99.90
21031;DHT22;61072;47.808;7.636;2022-12-24T17:08:07;12.20;99.90
21031;DHT22;61072;47.808;7.636;2022-12-24T17:10:35;12.20;99.90
21031;DHT22;61072;47.808;7.636;2022-12-24T17:13:02;12.20;99.90
21031;DHT22;61072;47.808;7.636;2022-12-24T17:15:28;12.10;99.90
21031;DHT22;61072;47.808;7.636;2022-12-24T17:17:55;12.10;99.90
21031;DHT22;61072;47.808;7.636;2022-12-24T17:20:22;12.10;99.90
21031;DHT22;61072;47.808;7.636;2022-12-24T17:22:50;12.10;99.90
21031;DHT22;61072;47.808;7.636;2022-12-24T17:25:17;12.10;99.90
21031;DHT22;61072;47.808;7.636;2022-12-24T17:27:44;12.10;99.90
21031;DHT22;61072;47.808;7.636;2022-12-24T17:30:11;12.10;99.90
21031;DHT22;61072;47.808;7.636;2022-12-24T17:32:38;12.10;99.90
21031;DHT22;61072;47.808;7.636;2022-12-24T17:35:06;12.00;99.90
21031;DHT22;61072;47.808;7.636;2022-12-24T17:37:33;12.10;99.90
21031;DHT22;61072;47.808;7.636;2022-12-24T17:39:59;12.00;99.90
21031;DHT22;61072;47.808;7.636;2022-12-24T17:42:26;11.90;99.90
21031;DHT22;61072;47.808;7.636;2022-12-24T17:44:53;12.00;99.90
21031;DHT22;61072;47.808;7.636;2022-12-24T17:47:19;12.00;99.90
21031;DHT22;61072;47.808;7.636;2022-12-24T17:49:46;12.10;99.90